Time;durP1;ratioP1;P1;durP2;ratioP2;P2;SDS_P1;SDS_P2;PMS_P1;PMS_P2;Temp;Humidity;BMP_temperature;BMP_pressure;BME280_temperature;BME280_humidity;BME280_pressure;Samples;Min_cycle;Max_cycle;Signal;HPM_P1;HPM_P2
2021/12/15 00:00:15;;;;;;;79.65;38.97;;;;;;;6.59;62.17;101830.56;5060225;28;20663;-78
2021/12/15 00:03:00;;;;;;;140.43;59.83;;;;;;;6.41;62.50;101839.88;5052512;28;20052;-77
2021/12/15 00:05:48;;;;;;;81.22;39.83;;;;;;;6.54;62.63;101846.72;5049779;28;20044;-77
2021/12/15 00:08:33;;;;;;;76.20;36.33;;;;;;;6.67;63.79;101843.56;5050739;28;20493;-77
2021/12/15 00:11:19;;;;;;;57.67;27.58;;;;;;;6.84;63.44;101849.63;5068960;28;20052;-78
2021/12/15 00:14:11;;;;;;;96.80;43.53;;;;;;;6.70;64.04;101840.34;5061180;28;20041;-78
2021/12/15 00:16:56;;;;;;;66.53;35.17;;;;;;;6.44;62.92;101840.19;5080574;28;20511;-78
2021/12/15 00:19:41;;;;;;;64.10;30.52;;;;;;;6.35;62.43;101847.13;5063218;28;20057;-78
2021/12/15 00:22:25;;;;;;;39.80;20.42;;;;;;;6.43;64.26;101843.16;5038767;28;20037;-78
2021/12/15 00:25:12;;;;;;;39.40;21.27;;;;;;;6.18;64.66;101842.97;5035520;28;20049;-78
2021/12/15 00:27:57;;;;;;;42.53;22.05;;;;;;;6.23;65.25;101851.09;5062737;28;20041;-78
2021/12/15 00:30:44;;;;;;;40.20;20.98;;;;;;;6.42;64.79;101846.91;5063625;28;20045;-78
2021/12/15 00:33:28;;;;;;;34.67;19.35;;;;;;;6.64;62.41;101846.81;5075645;28;20056;-78
2021/12/15 00:36:14;;;;;;;;;;;;;;;6.39;62.52;101833.94;5065773;28;20040;-78
2021/12/15 00:38:59;;;;;;;32.33;18.85;;;;;;;6.42;62.99;101844.22;5047738;28;19920;-79
2021/12/15 00:41:45;;;;;;;36.80;19.88;;;;;;;6.72;62.48;101843.59;5047794;28;20045;-78
2021/12/15 00:44:30;;;;;;;31.92;18.48;;;;;;;6.82;62.47;101844.47;5057107;28;20045;-78
2021/12/15 00:47:15;;;;;;;29.05;14.88;;;;;;;6.47;62.00;101846.13;5053242;28;20037;-78
2021/12/15 00:50:06;;;;;;;27.92;15.35;;;;;;;6.36;61.98;101829.03;5068548;28;20036;-79
2021/12/15 00:52:51;;;;;;;28.80;17.85;;;;;;;6.32;62.06;101838.75;5056751;28;20040;-79
2021/12/15 00:55:37;;;;;;;32.80;16.40;;;;;;;6.38;61.43;101843.13;5050446;28;20107;-79
2021/12/15 00:58:22;;;;;;;46.63;22.98;;;;;;;6.32;61.45;101844.16;5059374;28;20413;-78
2021/12/15 01:01:08;;;;;;;59.63;25.48;;;;;;;6.35;61.20;101849.00;5054773;28;20036;-79
2021/12/15 01:03:54;;;;;;;69.32;28.50;;;;;;;6.38;61.68;101843.13;5047550;28;20047;-78
2021/12/15 01:06:41;;;;;;;78.68;32.55;;;;;;;6.33;61.40;101851.19;5065305;28;20067;-78
2021/12/15 01:09:33;;;;;;;69.53;31.45;;;;;;;6.33;61.10;101846.59;5059458;28;20040;-78
2021/12/15 01:21:03;;;;;;;74.63;28.58;;;;;;;6.08;61.19;101861.78;5055579;28;20513;-77
2021/12/15 01:23:48;;;;;;;49.58;24.95;;;;;;;6.11;61.47;101866.66;5057469;28;20044;-78
2021/12/15 01:26:34;;;;;;;25.15;13.88;;;;;;;6.18;61.66;101864.56;5056616;28;20036;-78
2021/12/15 01:29:19;;;;;;;32.45;16.65;;;;;;;6.23;60.18;101861.91;5058759;28;20052;-78
2021/12/15 01:32:04;;;;;;;37.95;15.98;;;;;;;6.12;61.11;101866.41;5066971;28;20067;-78
2021/12/15 01:34:49;;;;;;;26.33;14.18;;;;;;;6.39;62.14;101866.34;5044514;28;20037;-79
2021/12/15 01:37:34;;;;;;;23.60;11.40;;;;;;;6.30;60.55;101865.19;5057858;28;20041;-79
2021/12/15 01:40:35;;;;;;;22.02;8.57;;;;;;;6.13;61.02;101859.94;5057370;28;20040;-79
2021/12/15 01:43:51;;;;;;;20.27;10.43;;;;;;;6.21;61.47;101872.13;5051839;28;20047;-79
2021/12/15 01:47:01;;;;;;;24.25;12.32;;;;;;;6.19;61.45;101871.59;5058674;28;20044;-77
2021/12/15 01:49:49;;;;;;;28.80;13.80;;;;;;;6.01;60.68;101870.09;5059806;28;20032;-79
2021/12/15 01:52:38;;;;;;;36.63;18.27;;;;;;;6.09;62.74;101874.22;5054615;28;20047;-78
2021/12/15 01:55:24;;;;;;;31.42;14.48;;;;;;;6.12;61.40;101877.22;5068842;28;20041;-78
2021/12/15 01:58:09;;;;;;;32.67;16.08;;;;;;;5.97;61.51;101875.19;5061716;28;20044;-78
2021/12/15 02:01:02;;;;;;;49.03;18.27;;;;;;;6.12;60.93;101881.78;5038552;28;20052;-78
2021/12/15 02:03:47;;;;;;;46.95;19.83;;;;;;;6.04;61.32;101868.78;5059775;28;20048;-78
2021/12/15 02:06:32;;;;;;;32.97;14.75;;;;;;;6.13;61.31;101873.44;5051307;28;20456;-78
2021/12/15 02:09:42;;;;;;;46.33;18.65;;;;;;;6.02;61.25;101871.72;5042991;28;20071;-78
2021/12/15 02:12:31;;;;;;;25.73;13.25;;;;;;;5.76;61.83;101857.13;5068528;28;20446;-79
2021/12/15 02:15:24;;;;;;;22.95;11.52;;;;;;;5.65;61.95;101865.38;5048870;28;20046;-77
2021/12/15 02:18:16;;;;;;;16.65;10.48;;;;;;;5.79;64.24;101864.69;5055784;28;20044;-78
2021/12/15 02:21:07;;;;;;;18.80;10.07;;;;;;;6.12;63.42;101871.00;5042214;28;20040;-78
2021/12/15 02:23:55;;;;;;;23.55;10.23;;;;;;;6.13;62.02;101872.63;5055530;28;20059;-78
2021/12/15 02:26:45;;;;;;;21.85;10.18;;;;;;;6.07;61.02;101873.66;5055531;28;20535;-78
2021/12/15 02:29:37;;;;;;;18.15;10.70;;;;;;;6.04;61.21;101871.47;5068690;28;20044;-78
2021/12/15 02:38:41;;;;;;;20.77;11.65;;;;;;;6.08;62.44;101864.47;5082193;28;20047;-79
2021/12/15 02:41:29;;;;;;;19.25;10.15;;;;;;;5.98;61.93;101865.22;5063267;28;20059;-79
2021/12/15 02:44:20;;;;;;;20.63;11.43;;;;;;;5.84;61.90;101861.28;5047836;28;20044;-79
2021/12/15 02:47:05;;;;;;;20.15;11.45;;;;;;;5.86;61.40;101865.31;5064327;28;20508;-78
2021/12/15 02:49:53;;;;;;;17.17;10.95;;;;;;;5.63;63.41;101871.03;5079019;28;20049;-79
2021/12/15 02:52:39;;;;;;;20.00;11.07;;;;;;;5.83;61.81;101871.25;5073052;28;20036;-78
2021/12/15 02:55:25;;;;;;;17.45;10.57;;;;;;;5.53;61.66;101879.03;5067509;28;20047;-78
2021/12/15 02:58:10;;;;;;;21.45;10.60;;;;;;;5.68;61.88;101881.88;5049801;28;20048;-77
2021/12/15 03:01:01;;;;;;;;;;;;;;;5.60;62.03;101869.66;5029914;28;20052;-78
2021/12/15 03:07:00;;;;;;;16.95;8.93;;;;;;;5.94;61.24;101878.38;5027269;28;20055;-77
2021/12/15 03:15:35;;;;;;;20.70;8.82;;;;;;;6.07;60.91;101873.66;5070946;28;20583;-78
2021/12/15 03:18:24;;;;;;;22.48;9.32;;;;;;;5.98;60.58;101874.13;5060801;28;20052;-78
2021/12/15 03:21:16;;;;;;;16.00;9.07;;;;;;;5.85;60.91;101871.78;5045828;28;20126;-78
2021/12/15 03:24:18;;;;;;;15.90;8.60;;;;;;;5.72;61.22;101882.19;5062034;28;20047;-78
2021/12/15 03:27:09;;;;;;;18.17;9.48;;;;;;;6.03;60.64;101884.16;5060917;28;20463;-77
2021/12/15 03:33:32;;;;;;;22.05;10.50;;;;;;;5.76;61.22;101881.41;5068323;28;20044;-78
2021/12/15 03:36:34;;;;;;;22.95;11.73;;;;;;;5.90;61.30;101868.34;5047819;28;20041;-79
2021/12/15 03:39:20;;;;;;;23.35;10.82;;;;;;;5.82;60.36;101872.31;5041761;28;20048;-78
2021/12/15 03:42:08;;;;;;;17.27;9.55;;;;;;;5.77;59.92;101880.34;5045496;28;20049;-78
2021/12/15 03:44:53;;;;;;;18.98;10.57;;;;;;;5.67;59.99;101882.13;5076492;28;20052;-78
2021/12/15 03:47:43;;;;;;;20.70;10.15;;;;;;;5.53;61.19;101881.72;5076086;28;20051;-78
2021/12/15 03:50:29;;;;;;;20.80;9.60;;;;;;;5.32;61.76;101883.38;5041681;28;20041;-79
2021/12/15 03:53:14;;;;;;;24.48;10.88;;;;;;;5.45;61.60;101890.25;5027319;28;20056;-79
2021/12/15 03:56:01;;;;;;;27.98;11.18;;;;;;;5.67;61.14;101891.03;5060244;28;20040;-79
2021/12/15 03:58:47;;;;;;;42.33;13.70;;;;;;;5.78;62.16;101891.97;5091857;22;20470;-56
2021/12/15 04:01:32;;;;;;;24.55;11.20;;;;;;;5.73;61.31;101889.22;5082523;28;20044;-56
2021/12/15 04:04:17;;;;;;;18.23;9.70;;;;;;;5.58;61.28;101896.09;5081955;28;20048;-56
2021/12/15 04:07:03;;;;;;;20.48;9.80;;;;;;;5.50;61.96;101893.00;5074180;28;20047;-56
2021/12/15 04:09:49;;;;;;;20.38;10.68;;;;;;;5.66;61.24;101900.19;5057203;28;20055;-57
2021/12/15 04:12:34;;;;;;;20.83;10.48;;;;;;;5.52;60.48;101898.97;5074360;28;20040;-55
2021/12/15 04:15:29;;;;;;;17.90;9.18;;;;;;;5.56;61.02;101900.09;5072991;28;20044;-57
2021/12/15 04:18:14;;;;;;;19.90;10.53;;;;;;;5.72;60.89;101895.69;5074770;28;20055;-56
2021/12/15 04:20:59;;;;;;;17.90;9.75;;;;;;;5.60;61.16;101893.94;5078870;28;20499;-56
2021/12/15 04:23:54;;;;;;;12.18;7.32;;;;;;;5.56;60.82;101894.69;5063472;28;20502;-57
2021/12/15 04:26:39;;;;;;;18.80;10.48;;;;;;;5.58;60.83;101895.25;5075989;28;20048;-57
2021/12/15 04:29:24;;;;;;;18.58;8.10;;;;;;;5.53;62.60;101893.34;5064507;28;20041;-56
2021/12/15 04:32:32;;;;;;;16.80;8.70;;;;;;;5.62;63.45;101898.25;5073692;28;20051;-57
2021/12/15 04:35:18;;;;;;;18.15;9.55;;;;;;;5.64;62.82;101896.94;5073842;28;20510;-56
2021/12/15 04:38:03;;;;;;;15.38;7.28;;;;;;;5.61;63.13;101894.75;5066555;28;20052;-56
2021/12/15 04:40:48;;;;;;;13.50;7.22;;;;;;;5.59;62.48;101896.88;5060469;28;20044;-56
2021/12/15 04:43:35;;;;;;;19.15;10.65;;;;;;;5.81;62.12;101894.16;5072468;28;20055;-57
2021/12/15 04:46:20;;;;;;;16.60;9.35;;;;;;;5.87;62.41;101893.97;5087044;28;20036;-56
2021/12/15 04:49:08;;;;;;;15.80;7.03;;;;;;;5.78;61.51;101900.06;5069763;28;20055;-56
2021/12/15 04:51:53;;;;;;;16.73;8.65;;;;;;;5.61;62.34;101897.44;5081136;28;20411;-56
2021/12/15 04:54:39;;;;;;;10.70;6.90;;;;;;;5.63;61.58;101900.72;5073585;28;20400;-56
2021/12/15 04:57:24;;;;;;;15.00;9.23;;;;;;;5.51;61.69;101898.16;5078106;28;20062;-57
2021/12/15 05:00:15;;;;;;;12.88;6.53;;;;;;;5.46;62.89;101897.28;5083211;28;20051;-56
2021/12/15 05:03:01;;;;;;;16.45;9.35;;;;;;;5.57;63.29;101897.16;5071503;28;20047;-56
2021/12/15 05:05:46;;;;;;;15.57;8.85;;;;;;;5.51;62.71;101903.53;5073387;28;20439;-56
2021/12/15 05:08:32;;;;;;;10.50;6.85;;;;;;;5.70;61.64;101900.50;5074727;28;20052;-57
2021/12/15 05:11:17;;;;;;;21.25;11.00;;;;;;;5.57;60.94;101905.25;5074794;28;20047;-56
2021/12/15 05:14:02;;;;;;;16.30;9.38;;;;;;;5.59;61.71;101910.34;5068697;28;20043;-57
2021/12/15 05:16:47;;;;;;;17.65;9.38;;;;;;;5.62;62.33;101915.28;5068138;28;20490;-56
2021/12/15 05:19:33;;;;;;;15.90;12.88;;;;;;;5.68;63.15;101919.66;5067378;28;20051;-56
2021/12/15 05:22:18;;;;;;;19.75;10.70;;;;;;;5.73;61.64;101916.19;5079647;28;20040;-57
2021/12/15 05:25:05;;;;;;;17.80;8.25;;;;;;;5.81;60.79;101916.56;5081780;28;20043;-57
2021/12/15 05:27:50;;;;;;;24.73;11.55;;;;;;;5.83;60.99;101914.44;5077975;28;20411;-57
2021/12/15 05:30:35;;;;;;;18.42;11.55;;;;;;;5.69;61.42;101921.28;5085019;28;20036;-56
2021/12/15 05:33:21;;;;;;;19.55;11.57;;;;;;;5.67;62.22;101912.63;5079619;28;20407;-57
2021/12/15 05:36:06;;;;;;;14.95;8.68;;;;;;;5.64;61.21;101920.44;5072386;28;20409;-56
2021/12/15 05:38:51;;;;;;;17.75;8.57;;;;;;;5.73;61.31;101921.59;5079999;28;20043;-56
2021/12/15 05:41:36;;;;;;;13.80;8.57;;;;;;;5.80;61.07;101935.69;5072956;28;20039;-56
2021/12/15 05:44:22;;;;;;;15.75;8.57;;;;;;;5.77;59.92;101938.91;5072241;28;20050;-57
2021/12/15 05:47:07;;;;;;;30.42;13.10;;;;;;;5.53;61.04;101930.28;5083111;28;20043;-56
2021/12/15 05:49:55;;;;;;;16.88;9.52;;;;;;;5.50;62.25;101941.56;5071637;28;20056;-56
2021/12/15 05:52:40;;;;;;;23.15;12.32;;;;;;;5.62;62.28;101944.94;5073506;28;20043;-57
2021/12/15 05:55:25;;;;;;;22.73;10.98;;;;;;;5.61;60.13;101956.81;5075679;28;20047;-57
2021/12/15 05:58:10;;;;;;;18.20;8.70;;;;;;;5.40;60.66;101954.91;5083623;28;20044;-56
2021/12/15 06:00:55;;;;;;;17.35;10.15;;;;;;;5.42;63.02;101950.09;5078775;28;20048;-57
2021/12/15 06:03:40;;;;;;;14.50;9.27;;;;;;;5.59;60.85;101956.22;5078990;28;20036;-56
2021/12/15 06:06:26;;;;;;;25.35;11.75;;;;;;;5.64;60.61;101956.28;5065650;28;20584;-57
2021/12/15 06:09:12;;;;;;;21.20;11.43;;;;;;;5.61;61.67;101948.72;5081067;28;20052;-56
2021/12/15 06:11:57;;;;;;;25.60;11.73;;;;;;;5.61;61.28;101956.81;5090022;28;20051;-57
2021/12/15 06:14:43;;;;;;;14.90;8.60;;;;;;;5.52;60.34;101958.31;5083788;28;20494;-57
2021/12/15 06:17:28;;;;;;;29.27;17.58;;;;;;;5.42;61.63;101950.91;5072185;28;20047;-56
2021/12/15 06:20:13;;;;;;;30.30;15.38;;;;;;;5.45;61.33;101954.97;5071281;28;20491;-56
2021/12/15 06:23:00;;;;;;;18.45;8.68;;;;;;;5.48;60.37;101962.59;5071750;28;20044;-56
2021/12/15 06:25:49;;;;;;;20.73;11.63;;;;;;;5.43;60.60;101970.63;5072068;28;20430;-56
2021/12/15 06:28:37;;;;;;;24.85;12.23;;;;;;;5.40;60.35;101981.88;5070570;28;20401;-56
2021/12/15 06:31:22;;;;;;;24.65;11.82;;;;;;;5.23;60.84;101983.81;5070499;28;20037;-57
2021/12/15 06:34:07;;;;;;;16.80;9.07;;;;;;;5.27;60.39;101982.25;5071644;28;20050;-57
2021/12/15 06:36:53;;;;;;;23.58;11.68;;;;;;;5.28;60.34;101982.00;5066977;28;20047;-57
2021/12/15 06:39:39;;;;;;;25.52;12.68;;;;;;;5.18;61.35;101985.34;5064782;28;20036;-57
2021/12/15 06:42:24;;;;;;;22.85;11.43;;;;;;;5.20;61.46;101993.22;5064034;28;20064;-56
2021/12/15 06:45:14;;;;;;;16.63;8.15;;;;;;;5.54;62.18;101988.53;5065760;28;20036;-57
2021/12/15 07:00:11;;;;;;;39.75;16.60;;;;;;;5.37;60.19;102001.28;5071094;28;20040;-57
2021/12/15 07:02:57;;;;;;;25.38;10.90;;;;;;;5.43;60.06;102008.38;5070500;28;20483;-57
2021/12/15 07:05:43;;;;;;;25.10;12.50;;;;;;;5.38;60.53;102024.50;5078065;28;20036;-55
2021/12/15 07:08:28;;;;;;;34.83;14.88;;;;;;;5.24;60.85;102023.19;5078388;28;20032;-57
2021/12/15 07:11:13;;;;;;;25.40;13.07;;;;;;;5.27;60.32;102025.41;5075200;28;20530;-57
2021/12/15 07:13:58;;;;;;;29.83;12.13;;;;;;;5.29;60.46;102018.69;5081693;28;20570;-57
2021/12/15 07:16:46;;;;;;;39.03;11.57;;;;;;;5.24;60.55;102025.88;5078481;28;20036;-57
2021/12/15 07:19:43;;;;;;;35.50;14.75;;;;;;;5.62;61.39;102035.88;5084523;28;20051;-56
2021/12/15 07:22:43;;;;;;;38.38;14.60;;;;;;;6.30;65.33;102046.16;5080045;28;20407;-57
2021/12/15 07:25:29;;;;;;;47.30;15.05;;;;;;;5.78;60.46;102038.53;5069676;28;20399;-57
2021/12/15 07:28:15;;;;;;;35.20;14.98;;;;;;;5.66;60.58;102039.69;5087645;28;20035;-57
2021/12/15 07:31:00;;;;;;;34.45;15.88;;;;;;;5.83;61.34;102035.06;5076342;28;20424;-57
2021/12/15 07:33:46;;;;;;;26.42;13.88;;;;;;;5.66;60.49;102043.22;5074835;28;20037;-57
2021/12/15 07:36:31;;;;;;;44.78;16.30;;;;;;;5.64;60.92;102041.84;5082568;28;20472;-57
2021/12/15 07:39:16;;;;;;;20.80;8.43;;;;;;;5.91;63.16;102046.25;5081130;28;20486;-57
2021/12/15 07:42:11;;;;;;;31.90;15.35;;;;;;;5.92;61.48;102050.59;5084053;28;20067;-56
2021/12/15 07:44:56;;;;;;;28.73;15.05;;;;;;;5.88;60.77;102044.09;5073486;28;20048;-56
2021/12/15 07:47:41;;;;;;;37.17;14.85;;;;;;;5.76;60.65;102043.34;5076265;28;20040;-56
2021/12/15 07:50:28;;;;;;;26.08;12.95;;;;;;;5.71;61.11;102045.97;5071006;28;20049;-56
2021/12/15 07:53:13;;;;;;;31.58;14.57;;;;;;;5.67;60.93;102046.72;5071110;28;20108;-54
2021/12/15 07:55:58;;;;;;;23.10;9.82;;;;;;;5.74;60.71;102052.78;5071149;28;20063;-55
2021/12/15 07:58:43;;;;;;;25.33;9.60;;;;;;;5.74;62.14;102052.78;5074498;28;20039;-55
2021/12/15 08:01:27;;;;;;;15.65;8.68;;;;;;;5.81;61.52;102056.09;5075255;28;20051;-56
2021/12/15 08:04:13;;;;;;;19.40;8.93;;;;;;;5.81;61.55;102059.59;5074496;28;20055;-56
2021/12/15 08:06:57;;;;;;;22.00;9.27;;;;;;;5.78;61.70;102059.28;5074340;28;20051;-56
2021/12/15 08:09:42;;;;;;;19.05;8.77;;;;;;;5.81;62.45;102062.31;5074555;28;20411;-55
2021/12/15 08:12:28;;;;;;;15.73;7.82;;;;;;;5.77;61.77;102061.19;5074381;28;20438;-56
2021/12/15 08:15:14;;;;;;;23.35;9.43;;;;;;;5.80;61.71;102066.06;5074326;28;20063;-56
2021/12/15 08:17:58;;;;;;;19.83;9.85;;;;;;;5.84;61.56;102059.09;5074326;28;20163;-55
2021/12/15 08:20:56;;;;;;;16.10;9.10;;;;;;;5.91;62.19;102059.75;5074089;28;20047;-56
2021/12/15 08:23:44;;;;;;;22.17;10.30;;;;;;;5.97;62.76;102074.97;5073999;28;20051;-55
2021/12/15 08:26:29;;;;;;;19.10;9.30;;;;;;;6.00;62.41;102069.06;5074808;28;20467;-55
2021/12/15 08:29:14;;;;;;;25.42;9.60;;;;;;;5.89;64.35;102067.28;5074230;28;20522;-56
2021/12/15 08:31:59;;;;;;;18.35;9.40;;;;;;;6.05;63.89;102065.59;5073973;28;20047;-56
2021/12/15 08:34:44;;;;;;;14.02;6.28;;;;;;;6.18;62.88;102059.00;5069555;28;20264;-56
2021/12/15 08:37:29;;;;;;;13.25;7.40;;;;;;;6.16;62.46;102066.53;5058801;28;20043;-55
2021/12/15 08:40:16;;;;;;;15.15;7.68;;;;;;;6.12;62.15;102076.22;5084183;28;20406;-56
2021/12/15 08:43:01;;;;;;;15.82;8.88;;;;;;;6.31;62.79;102085.63;5094176;28;20043;-56
2021/12/15 08:45:55;;;;;;;18.60;9.27;;;;;;;6.27;62.85;102085.31;5094084;28;20070;-56
2021/12/15 08:48:42;;;;;;;16.27;7.25;;;;;;;6.27;62.90;102087.19;5097396;28;20118;-55
2021/12/15 08:51:28;;;;;;;13.55;7.57;;;;;;;6.34;63.09;102091.34;5093865;28;20067;-56
2021/12/15 08:54:17;;;;;;;15.48;8.60;;;;;;;6.27;63.28;102095.28;5093821;28;20416;-56
2021/12/15 08:57:03;;;;;;;16.33;9.13;;;;;;;6.31;63.69;102099.94;5093836;28;20043;-56
2021/12/15 08:59:48;;;;;;;15.32;8.73;;;;;;;6.45;62.86;102097.66;5093780;28;20055;-56
2021/12/15 09:02:35;;;;;;;16.95;6.43;;;;;;;6.44;63.38;102096.03;5093651;28;20407;-56
2021/12/15 09:05:22;;;;;;;16.25;7.40;;;;;;;6.51;62.93;102104.75;5093520;28;20526;-56
2021/12/15 09:08:08;;;;;;;12.88;7.70;;;;;;;6.61;62.99;102110.25;5093036;28;20413;-56
2021/12/15 09:10:57;;;;;;;13.73;7.90;;;;;;;6.73;62.85;102107.41;5093578;28;20063;-56
2021/12/15 09:13:44;;;;;;;15.18;8.20;;;;;;;6.76;62.93;102115.00;5093365;28;20043;-56
2021/12/15 09:16:32;;;;;;;15.95;8.32;;;;;;;6.70;64.16;102114.16;5093551;28;20051;-56
2021/12/15 09:19:16;;;;;;;29.60;8.70;;;;;;;6.71;64.42;102118.47;5093473;28;20627;-56
2021/12/15 09:22:02;;;;;;;22.40;6.60;;;;;;;6.81;64.49;102125.88;5093380;28;20051;-56
2021/12/15 09:24:47;;;;;;;12.25;8.02;;;;;;;6.89;64.60;102120.03;5093175;28;20047;-56
2021/12/15 09:27:32;;;;;;;14.18;6.57;;;;;;;7.02;65.25;102113.38;5093042;28;20047;-56
2021/12/15 09:30:20;;;;;;;11.45;6.78;;;;;;;7.04;65.28;102122.03;5093323;28;20048;-56
2021/12/15 09:33:05;;;;;;;14.73;8.23;;;;;;;7.05;65.82;102119.09;5094525;28;20126;-56
2021/12/15 09:35:51;;;;;;;12.27;7.00;;;;;;;7.11;66.00;102119.97;5093644;28;20063;-56
2021/12/15 09:38:37;;;;;;;18.40;9.23;;;;;;;7.21;66.03;102117.34;5092955;28;20047;-56
2021/12/15 09:41:23;;;;;;;13.90;8.10;;;;;;;7.28;65.90;102110.63;5092987;28;20047;-56
2021/12/15 09:44:10;;;;;;;17.42;10.10;;;;;;;7.30;66.48;102105.78;5092685;28;20130;-56
2021/12/15 10:05:25;;;;;;;16.50;8.75;;;;;;;7.84;65.84;102099.34;5092588;28;20058;-56
2021/12/15 10:20:22;;;;;;;23.05;8.77;;;;;;;8.31;65.33;102108.25;5086184;28;20782;-57
2021/12/15 10:23:12;;;;;;;54.35;10.02;;;;;;;8.39;64.82;102107.72;5079552;28;20044;-57
2021/12/15 10:25:57;;;;;;;18.00;8.77;;;;;;;8.38;64.31;102099.91;5086788;28;20044;-57
2021/12/15 10:28:48;;;;;;;11.93;7.97;;;;;;;8.58;63.78;102100.72;5076057;28;20039;-57
2021/12/15 10:31:33;;;;;;;19.58;8.30;;;;;;;8.49;63.75;102091.50;5078375;28;20063;-56
2021/12/15 10:34:18;;;;;;;13.73;7.43;;;;;;;8.59;62.66;102090.72;5077572;28;20505;-56
2021/12/15 10:37:03;;;;;;;12.23;5.22;;;;;;;8.65;62.79;102094.25;5079550;28;20048;-57
2021/12/15 10:40:08;;;;;;;13.55;6.45;;;;;;;8.71;61.89;102093.19;5077321;28;20047;-57
2021/12/15 10:43:04;;;;;;;19.65;7.30;;;;;;;9.27;67.93;102092.13;5080139;28;20044;-58
2021/12/15 10:46:14;;;;;;;21.35;6.38;;;;;;;10.48;66.59;102106.47;5074355;28;20048;-57
2021/12/15 10:49:05;;;;;;;21.55;5.65;;;;;;;11.28;63.99;102090.63;5079858;28;20036;-57
2021/12/15 10:52:01;;;;;;;20.00;6.30;;;;;;;11.85;62.35;102098.00;5071788;28;20048;-57
2021/12/15 10:55:38;;;;;;;15.10;6.30;;;;;;;12.14;59.93;102092.50;5071496;28;20055;-57
2021/12/15 10:58:36;;;;;;;;;;;;;;;12.45;59.80;102088.25;5086758;28;20397;-57
2021/12/15 11:01:44;;;;;;;15.40;6.25;;;;;;;12.56;56.29;102092.44;5083693;28;19912;-58
2021/12/15 11:04:32;;;;;;;15.13;6.90;;;;;;;12.47;55.22;102088.75;5079134;28;20032;-57
2021/12/15 11:07:29;;;;;;;17.20;6.22;;;;;;;12.52;55.57;102087.88;5082640;28;20044;-57
2021/12/15 11:10:20;;;;;;;14.88;6.40;;;;;;;12.84;55.19;102094.22;5085907;28;20495;-58
2021/12/15 11:13:10;;;;;;;24.20;7.90;;;;;;;13.18;54.48;102093.97;5085570;28;20044;-57
2021/12/15 11:15:54;;;;;;;14.07;6.20;;;;;;;13.48;53.80;102092.63;5080933;28;20036;-57
2021/12/15 11:18:39;;;;;;;13.50;6.35;;;;;;;13.81;52.92;102092.59;5082883;28;20056;-57
2021/12/15 11:21:31;;;;;;;18.95;5.43;;;;;;;14.11;52.20;102083.75;5042374;28;20040;-58
2021/12/15 11:24:21;;;;;;;16.80;6.18;;;;;;;14.32;51.47;102084.97;5079009;28;20036;-57
2021/12/15 11:27:17;;;;;;;26.38;8.10;;;;;;;13.76;49.05;102092.69;5083056;28;20044;-57
2021/12/15 11:30:04;;;;;;;9.23;6.20;;;;;;;13.77;48.11;102091.53;5057447;28;20075;-57
2021/12/15 11:32:52;;;;;;;14.82;8.73;;;;;;;12.84;49.50;102088.78;5084663;28;20043;-56
2021/12/15 11:35:41;;;;;;;19.65;8.43;;;;;;;12.22;50.19;102081.75;5086584;28;20078;-57
2021/12/15 11:38:37;;;;;;;12.38;8.50;;;;;;;11.81;50.83;102080.59;5077432;28;20067;-57
2021/12/15 11:41:36;;;;;;;10.98;6.22;;;;;;;11.52;51.19;102078.72;5083354;28;20059;-57
2021/12/15 11:44:24;;;;;;;16.88;8.02;;;;;;;11.39;51.41;102078.56;5055347;28;20388;-56
2021/12/15 11:47:09;;;;;;;13.00;8.15;;;;;;;11.27;51.21;102083.59;5082153;28;20044;-57
2021/12/15 11:50:06;;;;;;;17.33;8.05;;;;;;;11.25;51.67;102091.22;5091370;28;20070;-57
2021/12/15 11:52:51;;;;;;;16.02;8.52;;;;;;;11.13;51.94;102086.13;5095270;28;20051;-57
2021/12/15 11:55:36;;;;;;;10.77;6.28;;;;;;;11.13;51.41;102076.06;5095175;28;20418;-57
2021/12/15 11:58:31;;;;;;;14.48;8.18;;;;;;;11.16;51.22;102085.59;5095226;28;20403;-57
2021/12/15 12:01:43;;;;;;;21.10;9.18;;;;;;;11.20;51.60;102081.19;5086257;28;20040;-56
2021/12/15 12:04:34;;;;;;;15.52;8.27;;;;;;;11.13;52.36;102081.50;5069875;28;20024;-57
2021/12/15 12:07:24;;;;;;;18.55;7.63;;;;;;;11.13;52.56;102076.06;5086060;28;20098;-57
2021/12/15 12:10:18;;;;;;;14.40;8.05;;;;;;;11.23;51.68;102072.44;5088497;28;20048;-57
2021/12/15 12:13:13;;;;;;;15.82;8.70;;;;;;;11.16;52.00;102069.25;5085258;28;20047;-57
2021/12/15 12:16:01;;;;;;;13.02;7.43;;;;;;;11.14;52.31;102066.81;5083009;28;20417;-57
2021/12/15 12:18:46;;;;;;;18.48;8.73;;;;;;;11.17;52.28;102070.06;5094858;28;20040;-57
2021/12/15 12:21:30;;;;;;;9.82;6.38;;;;;;;11.27;52.39;102075.41;5094964;28;20059;-57
2021/12/15 12:24:18;;;;;;;13.50;8.77;;;;;;;11.34;52.68;102067.72;5094500;28;20047;-57
2021/12/15 12:27:04;;;;;;;14.73;8.35;;;;;;;11.44;52.40;102067.59;5085296;28;20055;-57
2021/12/15 12:29:51;;;;;;;14.95;8.15;;;;;;;11.46;52.37;102062.69;5078888;28;20033;-56
2021/12/15 12:32:37;;;;;;;17.60;8.82;;;;;;;11.46;52.44;102058.06;5076509;28;20040;-57
2021/12/15 12:35:31;;;;;;;9.98;6.03;;;;;;;11.47;51.04;102050.72;5073912;28;20492;-56
2021/12/15 12:38:24;;;;;;;17.33;8.35;;;;;;;11.60;51.04;102050.00;5076407;28;20036;-56
2021/12/15 12:41:15;;;;;;;12.38;7.95;;;;;;;11.62;51.34;102050.53;5086247;28;20040;-57
2021/12/15 12:44:03;;;;;;;15.70;7.80;;;;;;;11.59;51.27;102059.28;5074778;28;20416;-57
2021/12/15 12:47:04;;;;;;;14.82;8.23;;;;;;;11.64;51.99;102059.22;5083400;28;20035;-56
2021/12/15 12:50:07;;;;;;;12.65;7.95;;;;;;;11.70;51.86;102049.09;5079236;28;20044;-57
2021/12/15 12:59:40;;;;;;;12.07;7.45;;;;;;;12.02;50.59;102037.56;5074108;28;20036;-57
2021/12/15 13:02:33;;;;;;;12.48;7.70;;;;;;;12.12;50.37;102043.69;5086169;28;20044;-57
2021/12/15 13:05:39;;;;;;;16.08;9.25;;;;;;;12.27;51.18;102038.03;5074794;28;20028;-57
2021/12/15 13:08:29;;;;;;;17.38;10.55;;;;;;;12.32;52.26;102043.41;5076775;28;20032;-57
2021/12/15 13:11:25;;;;;;;15.48;9.18;;;;;;;12.34;51.73;102041.19;5090132;28;20040;-57
2021/12/15 13:14:16;;;;;;;18.30;9.48;;;;;;;12.41;51.62;102041.66;5083431;28;20051;-57
2021/12/15 13:17:08;;;;;;;18.00;9.82;;;;;;;12.50;50.58;102047.25;5093336;28;20043;-57
2021/12/15 13:19:55;;;;;;;19.67;10.57;;;;;;;12.61;50.51;102045.16;5081586;28;20395;-57
2021/12/15 13:22:58;;;;;;;16.80;9.13;;;;;;;12.76;50.03;102044.94;5053267;28;20044;-57
2021/12/15 13:29:22;;;;;;;17.65;9.68;;;;;;;12.87;49.73;102054.59;5079799;28;20491;-57
2021/12/15 13:32:10;;;;;;;19.35;9.48;;;;;;;13.25;57.11;102060.81;5079202;28;20418;-69
2021/12/15 13:34:55;;;;;;;16.88;10.80;;;;;;;13.26;52.29;102067.88;5040733;28;20040;-57
2021/12/15 13:37:49;;;;;;;;;;;;;;;13.17;50.48;102078.69;5086806;28;20036;-57
2021/12/15 13:40:53;;;;;;;16.95;9.88;;;;;;;13.19;49.81;102084.69;5069387;28;19917;-57
2021/12/15 13:43:49;;;;;;;18.33;10.43;;;;;;;13.27;49.84;102072.25;5073226;28;20040;-57
2021/12/15 13:46:38;;;;;;;17.20;10.88;;;;;;;13.30;50.17;102068.13;5087307;28;20036;-57
2021/12/15 13:49:41;;;;;;;17.52;11.55;;;;;;;13.21;50.05;102071.50;5069802;28;20040;-57
2021/12/15 13:52:35;;;;;;;16.00;10.88;;;;;;;13.32;49.98;102076.81;5080451;28;20048;-57
2021/12/15 13:55:35;;;;;;;19.23;11.30;;;;;;;13.33;49.91;102081.97;5071913;28;20400;-56
2021/12/15 13:58:21;;;;;;;16.80;10.55;;;;;;;13.34;49.42;102083.59;5072557;28;20033;-57
2021/12/15 14:01:06;;;;;;;22.13;11.57;;;;;;;13.33;49.99;102090.16;5072582;28;20037;-57
2021/12/15 14:03:52;;;;;;;14.18;9.20;;;;;;;13.37;49.64;102076.72;5072504;28;20052;-57
2021/12/15 14:07:19;;;;;;;21.85;12.35;;;;;;;13.40;49.23;102079.69;5072610;28;20043;-57
2021/12/15 14:10:24;;;;;;;14.80;7.95;;;;;;;13.40;48.89;102082.41;5072570;28;20032;-57
2021/12/15 14:13:09;;;;;;;18.65;11.68;;;;;;;13.42;49.39;102082.09;5073279;28;20500;-57
2021/12/15 14:15:55;;;;;;;16.80;11.15;;;;;;;13.37;49.27;102084.91;5072314;28;20045;-56
2021/12/15 14:18:40;;;;;;;16.52;10.65;;;;;;;13.32;49.55;102091.28;5064787;28;20401;-56
2021/12/15 14:21:25;;;;;;;;;;;;;;;13.37;49.56;102082.19;5052849;28;20044;-57